createdAt,value
2018-12-31T00:01:11.250Z,40.51
2018-12-31T00:03:41.209Z,39.26
2018-12-31T00:06:10.911Z,38.44
2018-12-31T00:08:40.901Z,37.38
2018-12-31T00:11:10.640Z,36.82
2018-12-31T00:13:40.451Z,36.35
2018-12-31T00:16:10.431Z,35.54
2018-12-31T00:18:40.183Z,35.53
2018-12-31T00:21:09.895Z,34.08
2018-12-31T00:23:39.761Z,32.93
2018-12-31T00:26:09.520Z,27.92
2018-12-31T00:28:39.344Z,26.89
2018-12-31T00:31:09.238Z,24.17
2018-12-31T00:33:38.986Z,19.48
2018-12-31T00:36:09.804Z,18.53
2018-12-31T00:38:39.733Z,18.27
2018-12-31T00:41:09.650Z,18.19
2018-12-31T00:43:39.553Z,18.26
2018-12-31T00:46:10.770Z,18.54
2018-12-31T00:48:40.640Z,18.93
2018-12-31T00:51:10.527Z,19.16
2018-12-31T00:53:40.506Z,20.10
2018-12-31T00:56:10.265Z,21.35
2018-12-31T00:58:40.101Z,22.04
2018-12-31T01:01:09.863Z,22.69
2018-12-31T01:03:39.828Z,23.28
2018-12-31T01:06:09.654Z,24.10
2018-12-31T01:08:39.506Z,32.88
2018-12-31T01:11:09.261Z,33.83
2018-12-31T01:13:39.122Z,34.48
2018-12-31T01:16:08.977Z,34.64
2018-12-31T01:18:38.819Z,34.31
2018-12-31T01:21:08.557Z,34.81
2018-12-31T01:23:38.330Z,35.05
2018-12-31T01:26:08.145Z,34.75
2018-12-31T01:28:37.917Z,35.00
2018-12-31T01:31:07.664Z,34.51
2018-12-31T01:33:37.593Z,34.19
2018-12-31T01:36:07.567Z,34.23
2018-12-31T01:38:37.324Z,33.12
2018-12-31T01:41:07.048Z,32.50
2018-12-31T01:43:37.388Z,32.51
2018-12-31T01:46:07.167Z,32.24
2018-12-31T01:48:37.001Z,32.05
2018-12-31T01:51:11.493Z,31.71
2018-12-31T01:53:39.595Z,31.56
2018-12-31T01:56:09.421Z,31.66
2018-12-31T01:58:39.377Z,31.61
2018-12-31T02:01:09.242Z,31.59
2018-12-31T02:03:39.027Z,31.52
2018-12-31T02:06:08.928Z,31.45
2018-12-31T02:08:38.784Z,31.55
2018-12-31T02:11:08.488Z,31.67
2018-12-31T02:13:38.235Z,31.76
2018-12-31T02:16:08.002Z,31.95
2018-12-31T02:18:37.934Z,32.37
2018-12-31T02:21:07.783Z,32.77
2018-12-31T02:23:37.533Z,33.08
2018-12-31T02:26:07.241Z,33.54
2018-12-31T02:28:37.029Z,34.37
2018-12-31T02:31:07.863Z,38.02
2018-12-31T02:33:37.626Z,36.95
2018-12-31T02:36:07.502Z,36.24
2018-12-31T02:38:37.281Z,36.13
2018-12-31T02:41:08.114Z,36.42
2018-12-31T02:43:37.953Z,37.02
2018-12-31T02:46:07.609Z,36.84
2018-12-31T02:48:37.539Z,36.98
2018-12-31T02:51:07.511Z,37.28
2018-12-31T02:53:37.268Z,37.92
2018-12-31T02:56:07.396Z,37.70
2018-12-31T02:58:37.247Z,37.91
2018-12-31T03:01:07.019Z,38.20
2018-12-31T03:03:36.715Z,38.45
2018-12-31T03:06:06.714Z,38.15
2018-12-31T03:08:36.466Z,39.80
2018-12-31T03:11:06.486Z,41.58
2018-12-31T03:13:36.235Z,41.78
2018-12-31T03:16:05.926Z,43.20
2018-12-31T03:18:35.710Z,45.03
2018-12-31T03:21:05.686Z,44.86
2018-12-31T03:23:35.459Z,46.84
2018-12-31T03:26:05.272Z,44.87
2018-12-31T03:28:35.339Z,42.00
2018-12-31T03:31:05.000Z,41.11
2018-12-31T03:33:34.801Z,39.84
2018-12-31T03:36:04.673Z,38.76
2018-12-31T03:38:34.353Z,37.70
2018-12-31T03:41:04.307Z,37.42
2018-12-31T03:43:34.017Z,36.99
2018-12-31T03:46:03.688Z,36.61
2018-12-31T03:48:33.602Z,36.47
2018-12-31T03:51:03.507Z,35.61
2018-12-31T03:53:33.318Z,34.41
2018-12-31T03:56:03.143Z,33.58
2018-12-31T03:58:32.995Z,33.81
2018-12-31T04:01:03.212Z,33.54
2018-12-31T04:03:32.905Z,34.27
2018-12-31T04:06:04.037Z,34.76
2018-12-31T04:08:33.961Z,34.86
2018-12-31T04:11:03.654Z,34.72
2018-12-31T04:13:33.403Z,34.66
2018-12-31T04:16:03.091Z,34.71
2018-12-31T04:18:32.964Z,34.62
2018-12-31T04:21:02.976Z,35.42
2018-12-31T04:23:32.639Z,35.68
2018-12-31T04:26:02.476Z,35.57
2018-12-31T04:28:32.413Z,34.98
2018-12-31T04:31:02.303Z,34.92
2018-12-31T04:33:32.215Z,34.95
2018-12-31T04:36:02.278Z,34.95
2018-12-31T04:38:32.036Z,34.96
2018-12-31T04:41:02.062Z,35.04
2018-12-31T04:43:31.909Z,35.85
2018-12-31T04:46:01.683Z,36.59
2018-12-31T04:48:31.514Z,36.67
2018-12-31T04:51:01.355Z,36.16
2018-12-31T04:53:31.236Z,36.12
2018-12-31T04:56:01.245Z,35.92
2018-12-31T04:58:31.388Z,36.30
2018-12-31T05:01:01.180Z,36.82
2018-12-31T05:03:31.044Z,36.81
2018-12-31T05:06:00.811Z,36.13
2018-12-31T05:08:30.827Z,35.86
2018-12-31T05:11:00.791Z,36.34
2018-12-31T05:13:30.820Z,36.26
2018-12-31T05:16:00.662Z,36.68
2018-12-31T05:18:30.494Z,37.50
2018-12-31T05:21:00.369Z,37.49
2018-12-31T05:23:30.097Z,38.87
2018-12-31T05:25:59.785Z,38.07
2018-12-31T05:28:29.441Z,37.82
2018-12-31T05:30:59.281Z,38.16
2018-12-31T05:33:29.348Z,35.65
2018-12-31T05:35:59.014Z,34.48
2018-12-31T05:38:28.816Z,34.52
2018-12-31T05:40:58.669Z,34.04
2018-12-31T05:43:28.432Z,34.63
2018-12-31T05:45:58.262Z,34.24
2018-12-31T05:48:28.116Z,33.49
2018-12-31T05:50:57.978Z,33.28
2018-12-31T05:53:27.794Z,32.65
2018-12-31T05:55:57.589Z,34.70
2018-12-31T05:58:27.646Z,36.24
2018-12-31T06:00:57.375Z,36.71
2018-12-31T06:03:27.528Z,37.00
2018-12-31T06:05:57.286Z,36.95
2018-12-31T06:08:27.180Z,37.60
2018-12-31T06:10:57.795Z,37.36
2018-12-31T06:13:27.431Z,37.19
2018-12-31T06:15:57.253Z,36.56
2018-12-31T06:18:27.137Z,36.84
2018-12-31T06:20:56.868Z,37.73
2018-12-31T06:23:26.704Z,37.91
2018-12-31T06:25:57.775Z,38.61
2018-12-31T06:28:27.467Z,40.07
2018-12-31T06:30:57.156Z,41.73
2018-12-31T06:33:27.339Z,40.58
2018-12-31T06:35:57.108Z,41.72
2018-12-31T06:38:26.921Z,41.68
2018-12-31T06:40:58.118Z,40.49
2018-12-31T06:43:27.875Z,41.49
2018-12-31T06:45:57.763Z,41.48
2018-12-31T06:48:28.848Z,41.41
2018-12-31T06:50:58.640Z,40.22
2018-12-31T06:53:28.452Z,39.59
2018-12-31T06:55:58.244Z,38.96
2018-12-31T06:58:28.118Z,39.41
2018-12-31T07:00:58.030Z,38.72
2018-12-31T07:03:29.668Z,39.29
2018-12-31T07:05:59.591Z,39.86
2018-12-31T07:08:29.489Z,39.15
2018-12-31T07:10:59.453Z,39.87
2018-12-31T07:13:29.591Z,42.31
2018-12-31T07:15:59.417Z,45.66
2018-12-31T07:18:29.182Z,45.55
2018-12-31T07:20:59.271Z,45.40
2018-12-31T07:23:29.299Z,44.32
2018-12-31T07:25:59.101Z,43.79
2018-12-31T07:28:30.427Z,45.29
2018-12-31T07:31:00.163Z,42.49
2018-12-31T07:33:30.098Z,39.66
2018-12-31T07:35:59.951Z,40.56
2018-12-31T07:38:29.704Z,43.24
2018-12-31T07:41:00.864Z,45.89
2018-12-31T07:43:30.763Z,45.05
2018-12-31T07:46:00.680Z,45.77
2018-12-31T07:48:31.776Z,47.86
2018-12-31T07:51:01.546Z,47.42
2018-12-31T07:53:31.450Z,45.71
2018-12-31T07:56:01.319Z,44.29
2018-12-31T07:58:31.068Z,43.88
2018-12-31T08:01:00.743Z,45.18
2018-12-31T08:03:30.764Z,51.01
2018-12-31T08:06:01.903Z,54.51
2018-12-31T08:08:31.780Z,55.01
2018-12-31T08:11:01.761Z,50.95
2018-12-31T08:13:31.805Z,52.40
2018-12-31T08:16:01.654Z,52.74
2018-12-31T08:18:31.463Z,53.98
2018-12-31T08:21:01.624Z,51.57
2018-12-31T08:23:31.509Z,45.64
2018-12-31T08:26:01.436Z,47.26
2018-12-31T08:28:31.298Z,54.10
2018-12-31T08:31:01.051Z,59.04
2018-12-31T08:33:31.035Z,58.96
2018-12-31T08:36:00.777Z,59.51
2018-12-31T08:38:30.599Z,59.98
2018-12-31T08:41:00.465Z,63.15
2018-12-31T08:43:30.142Z,61.62
2018-12-31T08:45:59.927Z,65.68
2018-12-31T08:48:30.995Z,63.97
2018-12-31T08:51:00.913Z,65.36
2018-12-31T08:53:30.711Z,58.45
2018-12-31T08:56:01.671Z,55.87
2018-12-31T08:58:31.763Z,60.85
2018-12-31T09:01:01.659Z,62.92
2018-12-31T09:03:31.450Z,62.78
2018-12-31T09:06:01.307Z,61.66
2018-12-31T09:08:31.130Z,57.55
2018-12-31T09:11:00.933Z,55.59
2018-12-31T09:13:30.828Z,56.42
2018-12-31T09:16:00.709Z,55.30
2018-12-31T09:18:30.464Z,55.42
2018-12-31T09:21:00.197Z,53.93
2018-12-31T09:23:30.363Z,60.81
2018-12-31T09:26:00.213Z,61.50
2018-12-31T09:28:31.380Z,60.51
2018-12-31T09:31:00.982Z,59.00
2018-12-31T09:33:30.596Z,59.57
2018-12-31T09:36:01.647Z,62.01
2018-12-31T09:38:31.336Z,61.28
2018-12-31T09:41:01.165Z,61.48
2018-12-31T09:43:31.004Z,67.17
2018-12-31T09:46:00.672Z,73.04
2018-12-31T09:48:30.381Z,77.06
2018-12-31T09:51:00.039Z,79.32
2018-12-31T09:53:29.903Z,78.29
2018-12-31T09:55:59.791Z,78.17
2018-12-31T09:58:29.542Z,76.36
2018-12-31T10:01:00.382Z,68.96
2018-12-31T10:03:30.147Z,65.04
2018-12-31T10:06:00.005Z,63.20
2018-12-31T10:08:29.822Z,62.81
2018-12-31T10:10:59.808Z,65.51
2018-12-31T10:13:30.381Z,71.81
2018-12-31T10:16:00.295Z,72.71
2018-12-31T10:18:30.004Z,71.53
2018-12-31T10:20:59.706Z,71.92
2018-12-31T10:23:29.479Z,75.18
2018-12-31T10:25:59.143Z,78.48
2018-12-31T10:28:29.276Z,80.01
2018-12-31T10:30:59.118Z,79.47
2018-12-31T10:33:28.985Z,78.71
2018-12-31T10:35:58.907Z,78.76
2018-12-31T10:38:28.769Z,80.07
2018-12-31T10:40:58.429Z,78.49
2018-12-31T10:43:28.281Z,78.85
2018-12-31T10:45:58.079Z,78.23
2018-12-31T10:48:27.863Z,78.88
2018-12-31T10:50:57.532Z,78.72
2018-12-31T10:53:27.318Z,76.96
2018-12-31T10:55:57.232Z,76.96
2018-12-31T10:58:27.259Z,79.22
2018-12-31T11:00:57.278Z,78.31
2018-12-31T11:03:28.131Z,78.71
2018-12-31T11:05:57.787Z,78.06
2018-12-31T11:08:27.800Z,78.97
2018-12-31T11:10:57.655Z,77.59
2018-12-31T11:13:27.575Z,77.66
2018-12-31T11:15:57.534Z,74.83
2018-12-31T11:18:27.514Z,73.96
2018-12-31T11:20:57.224Z,73.60
2018-12-31T11:23:26.991Z,74.74
2018-12-31T11:25:56.633Z,74.18
2018-12-31T11:28:26.463Z,74.52
2018-12-31T11:30:56.547Z,75.20
2018-12-31T11:33:26.272Z,75.44
2018-12-31T11:35:56.025Z,77.45
2018-12-31T11:38:25.958Z,76.80
2018-12-31T11:40:55.678Z,73.88
2018-12-31T11:43:25.562Z,75.40
2018-12-31T11:45:55.430Z,77.32
2018-12-31T11:48:25.168Z,78.97
2018-12-31T11:50:54.849Z,80.06
2018-12-31T11:53:24.799Z,80.27
2018-12-31T11:55:54.701Z,80.33
2018-12-31T11:58:24.438Z,80.38
2018-12-31T12:00:55.704Z,78.93
2018-12-31T12:03:25.488Z,78.98
2018-12-31T12:05:56.552Z,79.85
2018-12-31T12:08:26.517Z,79.89
2018-12-31T12:10:56.408Z,80.20
2018-12-31T12:13:26.206Z,80.18
2018-12-31T12:15:57.512Z,79.99
2018-12-31T12:18:27.469Z,79.96
2018-12-31T12:20:57.276Z,80.17
2018-12-31T12:23:27.142Z,80.05
2018-12-31T12:25:57.238Z,80.09
2018-12-31T12:28:27.128Z,79.51
2018-12-31T12:30:57.212Z,79.32
2018-12-31T12:33:26.975Z,78.49
2018-12-31T12:35:57.097Z,77.59
2018-12-31T12:38:27.162Z,76.55
2018-12-31T12:40:56.811Z,75.78
2018-12-31T12:43:26.557Z,75.28
2018-12-31T12:45:57.612Z,74.34
2018-12-31T12:48:27.613Z,74.19
2018-12-31T12:50:57.515Z,74.30
2018-12-31T12:53:28.676Z,73.89
2018-12-31T12:55:58.469Z,74.60
2018-12-31T12:58:28.395Z,73.85
2018-12-31T13:00:58.482Z,73.51
2018-12-31T13:03:28.415Z,72.11
2018-12-31T13:05:58.209Z,71.86
2018-12-31T13:08:28.074Z,72.06
2018-12-31T13:10:57.580Z,71.60
2018-12-31T13:13:27.085Z,71.87
2018-12-31T13:15:57.013Z,71.39
2018-12-31T13:18:26.889Z,72.46
2018-12-31T13:20:56.811Z,72.05
2018-12-31T13:23:27.060Z,72.09
2018-12-31T13:25:56.849Z,71.47
2018-12-31T13:28:26.573Z,70.89
2018-12-31T13:30:57.867Z,70.48
2018-12-31T13:33:27.625Z,69.80
2018-12-31T13:35:57.249Z,69.49
2018-12-31T13:38:28.216Z,69.38
2018-12-31T13:40:58.107Z,68.56
2018-12-31T13:43:28.010Z,67.54
2018-12-31T13:45:57.859Z,68.48
2018-12-31T13:48:27.667Z,68.52
2018-12-31T13:50:57.464Z,67.69
2018-12-31T13:53:28.795Z,68.95
2018-12-31T13:55:59.620Z,69.28
2018-12-31T13:58:29.449Z,69.51
2018-12-31T14:00:59.453Z,69.87
2018-12-31T14:03:29.395Z,69.65
2018-12-31T14:06:00.918Z,70.16
2018-12-31T14:08:30.816Z,70.82
2018-12-31T14:11:00.692Z,72.18
2018-12-31T14:13:30.540Z,72.08
2018-12-31T14:16:00.317Z,72.37
2018-12-31T14:18:30.251Z,71.00
2018-12-31T14:21:00.171Z,70.85
2018-12-31T14:23:30.062Z,71.08
2018-12-31T14:25:59.968Z,72.62
2018-12-31T14:28:30.013Z,73.51
2018-12-31T14:30:59.821Z,73.88
2018-12-31T14:33:29.658Z,74.62
2018-12-31T14:35:59.425Z,75.76
2018-12-31T14:38:29.235Z,76.40
2018-12-31T14:41:00.233Z,77.09
2018-12-31T14:43:30.313Z,77.82
2018-12-31T14:46:00.138Z,78.25
2018-12-31T14:48:30.100Z,78.80
2018-12-31T14:50:59.864Z,79.44
2018-12-31T14:53:29.771Z,79.82
2018-12-31T14:55:59.687Z,79.77
2018-12-31T14:58:29.611Z,79.80
2018-12-31T15:00:59.441Z,79.86
2018-12-31T15:03:29.378Z,79.59
2018-12-31T15:05:59.152Z,78.70
2018-12-31T15:08:30.542Z,78.71
2018-12-31T15:11:00.303Z,77.92
2018-12-31T15:13:30.226Z,78.44
2018-12-31T15:16:00.091Z,77.90
2018-12-31T15:18:30.379Z,77.57
2018-12-31T15:21:00.117Z,78.39
2018-12-31T15:23:29.885Z,78.39
2018-12-31T15:25:59.974Z,77.71
2018-12-31T15:28:29.921Z,77.74
2018-12-31T15:30:59.959Z,76.60
2018-12-31T15:33:29.818Z,76.14
2018-12-31T15:35:59.588Z,74.92
2018-12-31T15:38:29.818Z,73.18
2018-12-31T15:40:59.797Z,72.34
2018-12-31T15:43:29.810Z,71.78
2018-12-31T15:45:59.874Z,72.22
2018-12-31T15:48:29.634Z,72.34
2018-12-31T15:50:59.498Z,72.28
2018-12-31T15:53:29.430Z,72.33
2018-12-31T15:56:00.453Z,71.71
2018-12-31T15:58:30.277Z,70.76
2018-12-31T16:01:00.121Z,70.64
2018-12-31T16:03:29.937Z,70.65
2018-12-31T16:05:59.913Z,70.63
2018-12-31T16:08:29.760Z,69.98
2018-12-31T16:10:59.591Z,70.55
2018-12-31T16:13:29.428Z,70.22
2018-12-31T16:15:59.046Z,70.21
2018-12-31T16:18:30.131Z,70.73
2018-12-31T16:20:59.906Z,71.10
2018-12-31T16:23:29.616Z,70.86
2018-12-31T16:26:00.762Z,69.98
2018-12-31T16:28:30.507Z,67.87
2018-12-31T16:31:00.338Z,64.54
2018-12-31T16:33:30.259Z,62.47
2018-12-31T16:36:00.333Z,62.23
2018-12-31T16:38:31.497Z,62.01
2018-12-31T16:41:01.660Z,62.04
2018-12-31T16:43:31.491Z,62.76
2018-12-31T16:46:01.221Z,62.27
2018-12-31T16:48:31.307Z,61.64
2018-12-31T16:51:01.071Z,62.80
2018-12-31T16:53:31.517Z,65.27
2018-12-31T16:56:02.570Z,68.13
2018-12-31T16:58:32.568Z,68.66
2018-12-31T17:01:02.384Z,68.01
2018-12-31T17:03:32.241Z,66.01
2018-12-31T17:06:02.003Z,64.27
2018-12-31T17:08:31.842Z,64.54
2018-12-31T17:11:03.159Z,64.58
2018-12-31T17:13:33.205Z,64.67
2018-12-31T17:16:03.311Z,64.32
2018-12-31T17:18:33.356Z,64.45
2018-12-31T17:21:03.053Z,64.47
2018-12-31T17:23:32.855Z,64.34
2018-12-31T17:26:02.965Z,64.07
2018-12-31T17:28:32.899Z,64.15
2018-12-31T17:31:02.921Z,65.38
2018-12-31T17:33:34.241Z,65.31
2018-12-31T17:36:04.184Z,65.50
2018-12-31T17:38:34.126Z,65.20
2018-12-31T17:41:03.933Z,65.02
2018-12-31T17:43:34.043Z,64.50
2018-12-31T17:46:03.857Z,63.82
2018-12-31T17:48:33.833Z,62.43
2018-12-31T17:51:03.592Z,61.73
2018-12-31T17:53:33.407Z,59.86
2018-12-31T17:56:03.252Z,59.48
2018-12-31T17:58:32.805Z,59.59
2018-12-31T18:01:02.608Z,60.80
2018-12-31T18:03:32.773Z,61.67
2018-12-31T18:06:02.449Z,62.67
2018-12-31T18:08:32.458Z,64.76
2018-12-31T18:11:02.288Z,64.04
2018-12-31T18:13:32.212Z,63.88
2018-12-31T18:16:04.671Z,65.39
2018-12-31T18:18:34.548Z,64.62
2018-12-31T18:21:04.516Z,64.39
2018-12-31T18:23:34.313Z,63.65
2018-12-31T18:26:04.329Z,63.55
2018-12-31T18:28:34.174Z,61.54
2018-12-31T18:31:04.111Z,58.43
2018-12-31T18:33:34.073Z,57.32
2018-12-31T18:36:04.041Z,57.25
2018-12-31T18:38:34.221Z,56.10
2018-12-31T18:41:04.148Z,57.45
2018-12-31T18:43:34.012Z,58.86
2018-12-31T18:46:03.669Z,59.00
2018-12-31T18:48:33.383Z,59.94
2018-12-31T18:51:03.581Z,59.07
2018-12-31T18:53:33.649Z,56.21
2018-12-31T18:56:03.459Z,55.68
2018-12-31T18:58:33.432Z,55.51
2018-12-31T19:01:03.085Z,55.20
2018-12-31T19:03:33.064Z,54.63
2018-12-31T19:06:04.271Z,54.85
2018-12-31T19:08:34.272Z,55.68
2018-12-31T19:11:04.455Z,57.07
2018-12-31T19:13:34.293Z,57.31
2018-12-31T19:16:04.228Z,58.06
2018-12-31T19:18:34.109Z,58.25
2018-12-31T19:21:03.962Z,59.74
2018-12-31T19:23:33.753Z,58.10
2018-12-31T19:26:03.607Z,57.99
2018-12-31T19:28:33.279Z,58.03
2018-12-31T19:31:03.101Z,57.69
2018-12-31T19:33:33.056Z,58.00
2018-12-31T19:36:02.848Z,59.05
2018-12-31T19:38:32.524Z,60.17
2018-12-31T19:41:02.662Z,59.17
2018-12-31T19:43:32.486Z,58.86
2018-12-31T19:46:02.276Z,59.26
2018-12-31T19:48:33.365Z,60.77
2018-12-31T19:51:03.642Z,60.72
2018-12-31T19:53:33.371Z,60.52
2018-12-31T19:56:03.575Z,60.02
2018-12-31T19:58:33.537Z,59.78
2018-12-31T20:01:03.322Z,60.13
2018-12-31T20:03:33.187Z,59.77
2018-12-31T20:06:02.861Z,62.50
2018-12-31T20:08:32.568Z,63.29
2018-12-31T20:11:02.333Z,63.24
2018-12-31T20:13:31.995Z,63.16
2018-12-31T20:16:01.717Z,62.46
2018-12-31T20:18:32.926Z,62.91
2018-12-31T20:21:02.873Z,64.19
2018-12-31T20:23:32.813Z,64.92
2018-12-31T20:26:02.765Z,65.44
2018-12-31T20:28:32.651Z,64.64
2018-12-31T20:31:02.476Z,64.14
2018-12-31T20:33:32.494Z,65.10
2018-12-31T20:36:02.277Z,66.57
2018-12-31T20:38:32.130Z,64.79
2018-12-31T20:41:02.011Z,64.16
2018-12-31T20:43:31.698Z,64.38
2018-12-31T20:46:02.001Z,65.18
2018-12-31T20:48:31.971Z,64.78
2018-12-31T20:51:03.070Z,65.46
2018-12-31T20:53:33.046Z,66.54
2018-12-31T20:56:02.931Z,66.71
2018-12-31T20:58:33.015Z,65.39
2018-12-31T21:01:02.778Z,65.21
2018-12-31T21:03:32.688Z,65.15
2018-12-31T21:06:02.770Z,64.99
2018-12-31T21:08:32.631Z,64.47
2018-12-31T21:11:02.493Z,65.03
2018-12-31T21:13:32.246Z,64.23
2018-12-31T21:16:01.957Z,63.13
2018-12-31T21:18:33.059Z,63.75
2018-12-31T21:21:03.569Z,61.46
2018-12-31T21:23:33.551Z,61.50
2018-12-31T21:26:03.422Z,61.83
2018-12-31T21:28:33.274Z,61.08
2018-12-31T21:31:03.095Z,60.55
2018-12-31T21:33:34.147Z,60.55
2018-12-31T21:36:04.360Z,61.08
2018-12-31T21:38:34.199Z,61.17
2018-12-31T21:41:03.993Z,62.98
2018-12-31T21:43:33.845Z,62.48
2018-12-31T21:46:03.832Z,61.84
2018-12-31T21:48:33.738Z,61.04
2018-12-31T21:51:03.533Z,61.79
2018-12-31T21:53:33.546Z,60.95
2018-12-31T21:56:03.311Z,60.92
2018-12-31T21:58:34.338Z,61.92
2018-12-31T22:01:04.121Z,60.25
2018-12-31T22:03:33.956Z,59.01
2018-12-31T22:06:06.742Z,59.18
2018-12-31T22:08:36.875Z,60.08
2018-12-31T22:11:06.705Z,60.68
2018-12-31T22:13:36.520Z,58.86
2018-12-31T22:16:06.419Z,58.82
2018-12-31T22:18:36.223Z,57.58
2018-12-31T22:21:06.095Z,59.25
2018-12-31T22:23:35.844Z,60.45
2018-12-31T22:26:05.577Z,60.13
2018-12-31T22:28:35.524Z,61.34
2018-12-31T22:31:05.506Z,61.22
2018-12-31T22:33:35.404Z,62.23
2018-12-31T22:36:05.266Z,61.78
2018-12-31T22:38:35.061Z,60.82
2018-12-31T22:41:05.064Z,60.06
2018-12-31T22:43:34.848Z,59.48
2018-12-31T22:46:04.684Z,60.45
2018-12-31T22:48:34.607Z,62.54
2018-12-31T22:51:04.551Z,63.45
2018-12-31T22:53:34.852Z,64.41
2018-12-31T22:56:04.776Z,65.39
2018-12-31T22:58:34.754Z,65.17
2018-12-31T23:01:04.763Z,65.31
2018-12-31T23:03:34.625Z,66.16
2018-12-31T23:06:04.694Z,66.01
2018-12-31T23:08:34.449Z,67.42
2018-12-31T23:11:05.898Z,65.06
2018-12-31T23:13:38.906Z,60.77
2018-12-31T23:16:09.777Z,58.12
2018-12-31T23:18:39.556Z,58.50
2018-12-31T23:21:10.711Z,59.57
2018-12-31T23:23:40.758Z,59.87
2018-12-31T23:26:10.529Z,61.90
2018-12-31T23:28:40.742Z,65.08
2018-12-31T23:31:10.725Z,65.05
2018-12-31T23:33:40.684Z,66.21
2018-12-31T23:36:12.320Z,68.25
2018-12-31T23:38:42.563Z,66.59
2018-12-31T23:41:12.274Z,64.91
2018-12-31T23:43:42.131Z,64.97
2018-12-31T23:46:12.048Z,64.36
2018-12-31T23:48:42.024Z,62.63
2018-12-31T23:51:11.913Z,61.22
2018-12-31T23:53:41.742Z,62.48
2018-12-31T23:56:11.674Z,63.58
2018-12-31T23:58:41.665Z,63.65
